Terminal Aerodrome Forecast
Issued by NWS Detroit/Pontiac, MI

Home | Current Version | Previous Version | Text Only | Print | Product List | Glossary On
Versions: 1 2 3 4 5 6 7 8 9 10 11 12 13 14 15 16 17 18 19 20 21 22 23 24 25 26
102
FTUS43 KDTX 261120
TAFDTW
TAF
KDTW 261120Z 2612/2718 06008KT P6SM OVC008
     FM261400 11008KT 5SM BR BKN012 OVC060
     FM261600 13010KT 3SM -RA SCT012 OVC025
     FM262200 16010KT 5SM -SHRA BKN015 OVC025
     FM270100 16008KT 3SM -SHRA BR OVC012
     FM270500 21008KT 5SM BR BKN010 OVC030=

USA.gov is the U.S. government's official web portal to all federal, state and local government web resources and services.